createdAt,value
2017-08-12T00:00:08.370Z,1006.77
2017-08-12T00:00:48.744Z,1006.78
2017-08-12T00:01:29.106Z,1006.72
2017-08-12T00:02:09.538Z,1006.75
2017-08-12T00:02:49.937Z,1006.73
2017-08-12T00:03:30.399Z,1006.77
2017-08-12T00:04:10.760Z,1006.79
2017-08-12T00:04:51.174Z,1006.76
2017-08-12T00:05:31.608Z,1006.76
2017-08-12T00:06:12.037Z,1006.83
2017-08-12T00:08:29.998Z,1006.91
2017-08-12T00:09:10.349Z,1006.93
2017-08-12T00:09:50.670Z,1006.92
2017-08-12T00:10:31.074Z,1006.89
2017-08-12T00:11:11.443Z,1006.9
2017-08-12T00:11:51.944Z,1006.89
2017-08-12T00:12:32.340Z,1006.87
2017-08-12T00:13:12.869Z,1006.89
2017-08-12T00:13:53.235Z,1006.84
2017-08-12T00:14:33.649Z,1006.81
2017-08-12T00:15:14.048Z,1006.83
2017-08-12T00:15:54.419Z,1006.83
2017-08-12T00:16:34.818Z,1006.84
2017-08-12T00:17:15.226Z,1006.83
2017-08-12T00:17:55.620Z,1006.83
2017-08-12T00:18:36.037Z,1006.87
2017-08-12T00:19:16.401Z,1006.89
2017-08-12T00:19:56.900Z,1006.85
2017-08-12T00:22:14.438Z,1006.72
2017-08-12T00:22:55.405Z,1006.74
2017-08-12T00:23:35.846Z,1006.74
2017-08-12T00:24:16.261Z,1006.72
2017-08-12T00:24:56.626Z,1006.74
2017-08-12T00:25:37.038Z,1006.76
2017-08-12T00:26:17.417Z,1006.78
2017-08-12T00:26:57.935Z,1006.75
2017-08-12T00:27:38.234Z,1006.77
2017-08-12T00:28:18.651Z,1006.79
2017-08-12T00:28:59.071Z,1006.78
2017-08-12T00:29:39.459Z,1006.81
2017-08-12T00:30:19.856Z,1006.76
2017-08-12T00:31:00.237Z,1006.75
2017-08-12T00:31:40.653Z,1006.74
2017-08-12T00:32:21.072Z,1006.73
2017-08-12T00:33:01.491Z,1006.7
2017-08-12T00:33:41.868Z,1006.71
2017-08-12T00:34:22.325Z,1006.69
2017-08-12T00:35:02.659Z,1006.69
2017-08-12T00:35:43.085Z,1006.7
2017-08-12T00:36:23.470Z,1006.68
2017-08-12T00:37:03.892Z,1006.69
2017-08-12T00:37:44.362Z,1006.72
2017-08-12T00:38:24.639Z,1006.72
2017-08-12T00:39:05.122Z,1006.74
2017-08-12T00:39:45.525Z,1006.73
2017-08-12T00:40:25.988Z,1006.76
2017-08-12T00:41:06.346Z,1006.76
2017-08-12T00:41:46.812Z,1006.75
2017-08-12T00:42:27.199Z,1006.75
2017-08-12T00:43:07.657Z,1006.74
2017-08-12T00:43:47.968Z,1006.71
2017-08-12T00:44:28.433Z,1006.76
2017-08-12T00:45:08.840Z,1006.71
2017-08-12T00:45:49.224Z,1006.68
2017-08-12T00:46:29.692Z,1006.68
2017-08-12T00:49:06.440Z,1006.7
2017-08-12T00:49:46.095Z,1006.67
2017-08-12T00:50:26.522Z,1006.63
2017-08-12T00:51:06.965Z,1006.63
2017-08-12T00:51:47.367Z,1006.66
2017-08-12T00:52:27.819Z,1006.62
2017-08-12T00:53:08.348Z,1006.57
2017-08-12T00:53:48.690Z,1006.55
2017-08-12T00:54:29.067Z,1006.57
2017-08-12T00:55:09.523Z,1006.51
2017-08-12T00:55:49.888Z,1006.54
2017-08-12T00:56:30.366Z,1006.56
2017-08-12T00:57:11.646Z,1006.6
2017-08-12T00:57:52.257Z,1006.55
2017-08-12T00:58:32.687Z,1006.56
2017-08-12T00:59:13.058Z,1006.52
2017-08-12T00:59:53.470Z,1006.57
2017-08-12T01:00:33.894Z,1006.55
2017-08-12T01:01:14.289Z,1006.56
2017-08-12T01:01:54.793Z,1006.59
2017-08-12T01:02:35.157Z,1006.55
2017-08-12T01:03:15.569Z,1006.58
2017-08-12T01:03:55.967Z,1006.62
2017-08-12T01:04:36.511Z,1006.58
2017-08-12T01:05:18.622Z,1006.58
2017-08-12T01:05:59.248Z,1006.55
2017-08-12T01:06:39.665Z,1006.55
2017-08-12T01:07:20.044Z,1006.52
2017-08-12T01:08:00.499Z,1006.52
2017-08-12T01:08:40.856Z,1006.5
2017-08-12T01:09:21.301Z,1006.46
2017-08-12T01:10:01.773Z,1006.48
2017-08-12T01:10:42.134Z,1006.45
2017-08-12T01:11:22.559Z,1006.46
2017-08-12T01:12:03.015Z,1006.48
2017-08-12T01:12:43.523Z,1006.5
2017-08-12T01:13:23.944Z,1006.48
2017-08-12T01:14:04.360Z,1006.44
2017-08-12T01:14:44.825Z,1006.46
2017-08-12T01:15:25.538Z,1006.4
2017-08-12T01:16:05.882Z,1006.42
2017-08-12T01:16:46.329Z,1006.42
2017-08-12T01:17:26.780Z,1006.39
2017-08-12T01:18:07.629Z,1006.38
2017-08-12T01:18:48.006Z,1006.4
2017-08-12T01:19:28.490Z,1006.37
2017-08-12T01:20:09.720Z,1006.39
2017-08-12T01:20:50.702Z,1006.37
2017-08-12T01:21:31.158Z,1006.38
2017-08-12T01:22:11.639Z,1006.43
2017-08-12T01:22:53.196Z,1006.39
2017-08-12T01:23:35.613Z,1006.43
2017-08-12T01:24:17.176Z,1006.39
2017-08-12T01:24:58.544Z,1006.39
2017-08-12T01:25:38.941Z,1006.36
2017-08-12T01:26:19.431Z,1006.36
2017-08-12T01:26:59.838Z,1006.34
2017-08-12T01:27:40.286Z,1006.32
2017-08-12T01:28:20.639Z,1006.36
2017-08-12T01:29:02.504Z,1006.34
2017-08-12T01:29:42.921Z,1006.33
2017-08-12T01:30:23.568Z,1006.32
2017-08-12T01:31:04.169Z,1006.37
2017-08-12T01:31:44.482Z,1006.35
2017-08-12T01:32:24.928Z,1006.35
2017-08-12T01:33:05.496Z,1006.37
2017-08-12T01:33:45.758Z,1006.33
2017-08-12T01:34:27.037Z,1006.34
2017-08-12T01:35:07.247Z,1006.36
2017-08-12T01:35:47.946Z,1006.33
2017-08-12T01:36:28.386Z,1006.29
2017-08-12T01:37:08.707Z,1006.29
2017-08-12T01:37:49.128Z,1006.31
2017-08-12T01:38:29.465Z,1006.26
2017-08-12T01:39:09.972Z,1006.26
2017-08-12T01:39:50.583Z,1006.27
2017-08-12T01:40:31.389Z,1006.29
2017-08-12T01:41:12.010Z,1006.23
2017-08-12T01:41:52.557Z,1006.29
2017-08-12T01:42:33.642Z,1006.25
2017-08-12T01:43:15.198Z,1006.28
2017-08-12T01:43:55.539Z,1006.29
2017-08-12T01:44:36.345Z,1006.33
2017-08-12T01:45:16.640Z,1006.31
2017-08-12T01:45:57.297Z,1006.31
2017-08-12T01:46:37.726Z,1006.24
2017-08-12T01:47:18.233Z,1006.22
2017-08-12T01:47:59.557Z,1006.4
2017-08-12T01:48:40.111Z,1006.35
2017-08-12T01:49:20.591Z,1006.41
2017-08-12T01:50:01.349Z,1006.46
2017-08-12T01:50:41.777Z,1006.45
2017-08-12T01:51:22.615Z,1006.42
2017-08-12T01:52:03.449Z,1006.45
2017-08-12T01:52:43.911Z,1006.47
2017-08-12T01:53:24.654Z,1006.43
2017-08-12T01:54:05.124Z,1006.43
2017-08-12T01:56:47.087Z,1006.47
2017-08-12T01:58:39.686Z,1006.46
2017-08-12T01:59:20.971Z,1006.48
2017-08-12T02:00:01.101Z,1006.46
2017-08-12T02:00:41.542Z,1006.42
2017-08-12T02:01:21.975Z,1006.46
2017-08-12T02:02:02.874Z,1006.46
2017-08-12T02:02:43.249Z,1006.4
2017-08-12T02:03:23.765Z,1006.42
2017-08-12T02:04:06.076Z,1006.42
2017-08-12T02:04:46.489Z,1006.4
2017-08-12T02:05:27.147Z,1006.42
2017-08-12T02:06:08.402Z,1006.4
2017-08-12T02:06:48.809Z,1006.36
2017-08-12T02:07:29.500Z,1006.35
2017-08-12T02:08:09.956Z,1006.36
2017-08-12T02:08:50.406Z,1006.35
2017-08-12T02:09:30.885Z,1006.32
2017-08-12T02:10:12.142Z,1006.34
2017-08-12T02:10:52.601Z,1006.36
2017-08-12T02:11:34.144Z,1006.39
2017-08-12T02:12:17.583Z,1006.37
2017-08-12T02:12:57.940Z,1006.38
2017-08-12T02:13:41.166Z,1006.4
2017-08-12T02:14:21.665Z,1006.44
2017-08-12T02:15:02.376Z,1006.4
2017-08-12T02:15:43.061Z,1006.39
2017-08-12T02:17:48.377Z,1006.41
2017-08-12T02:18:41.136Z,1006.41
2017-08-12T02:19:39.533Z,1006.4
2017-08-12T02:20:38.334Z,1006.45
2017-08-12T02:21:38.042Z,1006.45
2017-08-12T02:22:36.762Z,1006.39
2017-08-12T02:23:36.093Z,1006.41
2017-08-12T02:24:24.199Z,1006.33
2017-08-12T02:25:18.962Z,1006.36
2017-08-12T02:26:12.517Z,1006.33
2017-08-12T02:27:11.251Z,1006.36
2017-08-12T02:28:02.640Z,1006.39
2017-08-12T02:28:44.249Z,1006.35
2017-08-12T02:29:25.859Z,1006.33
2017-08-12T02:30:06.407Z,1006.39
2017-08-12T02:30:47.711Z,1006.35
2017-08-12T02:31:29.457Z,1006.33
2017-08-12T02:32:12.858Z,1006.4
2017-08-12T02:32:57.529Z,1006.37
2017-08-12T02:33:38.854Z,1006.37
2017-08-12T02:34:20.951Z,1006.44
2017-08-12T02:38:42.013Z,1006.4
2017-08-12T02:39:23.876Z,1006.45
2017-08-12T02:40:04.773Z,1006.46
2017-08-12T02:40:45.119Z,1006.44
2017-08-12T02:41:25.771Z,1006.41
2017-08-12T02:42:05.987Z,1006.42
2017-08-12T02:42:46.434Z,1006.38
2017-08-12T02:43:26.778Z,1006.4
2017-08-12T02:44:07.740Z,1006.39
2017-08-12T02:44:47.968Z,1006.37
2017-08-12T02:45:28.330Z,1006.34
2017-08-12T02:46:08.865Z,1006.35
2017-08-12T02:46:49.226Z,1006.36
2017-08-12T02:47:29.647Z,1006.37
2017-08-12T02:48:09.985Z,1006.36
2017-08-12T02:48:50.393Z,1006.34
2017-08-12T02:49:30.850Z,1006.36
2017-08-12T02:50:11.382Z,1006.36
2017-08-12T02:50:51.849Z,1006.36
2017-08-12T02:51:32.260Z,1006.32
2017-08-12T02:52:12.635Z,1006.32
2017-08-12T02:52:53.429Z,1006.32
2017-08-12T02:53:33.598Z,1006.28
2017-08-12T02:54:14.087Z,1006.28
2017-08-12T02:54:54.494Z,1006.33
2017-08-12T02:55:35.040Z,1006.31
2017-08-12T02:56:15.479Z,1006.31
2017-08-12T02:56:55.795Z,1006.31
2017-08-12T02:57:36.295Z,1006.26
2017-08-12T02:58:16.693Z,1006.32
2017-08-12T02:58:57.096Z,1006.27
2017-08-12T02:59:37.492Z,1006.27
2017-08-12T03:00:17.982Z,1006.23
2017-08-12T03:00:58.437Z,1006.26
2017-08-12T03:01:38.885Z,1006.23
2017-08-12T03:02:19.223Z,1006.23
2017-08-12T03:04:16.703Z,1006.24
2017-08-12T03:04:57.739Z,1006.22
2017-08-12T03:05:38.198Z,1006.24
2017-08-12T03:06:18.575Z,1006.25
2017-08-12T03:06:58.984Z,1006.21
2017-08-12T03:07:39.460Z,1006.24
2017-08-12T03:08:19.805Z,1006.25
2017-08-12T03:09:00.251Z,1006.22
2017-08-12T03:09:40.645Z,1006.21
2017-08-12T03:10:21.052Z,1006.18
2017-08-12T03:11:01.486Z,1006.14
2017-08-12T03:11:41.856Z,1006.13
2017-08-12T03:12:22.270Z,1006.15
2017-08-12T03:13:02.715Z,1006.15
2017-08-12T03:13:43.129Z,1006.12
2017-08-12T03:14:23.645Z,1006.13
2017-08-12T03:15:03.992Z,1006.13
2017-08-12T03:15:44.330Z,1006.12
2017-08-12T03:16:24.797Z,1006.13
2017-08-12T03:17:05.147Z,1006.1
2017-08-12T03:17:45.600Z,1006.09
2017-08-12T03:18:25.904Z,1006.09
2017-08-12T03:19:06.945Z,1006.11
2017-08-12T03:21:34.692Z,1006.12
2017-08-12T03:22:15.181Z,1006.12
2017-08-12T03:22:55.515Z,1006.13
2017-08-12T03:23:35.881Z,1006.13
2017-08-12T03:24:16.387Z,1006.14
2017-08-12T03:24:56.764Z,1006.17
2017-08-12T03:25:37.150Z,1006.15
2017-08-12T03:26:17.560Z,1006.15
2017-08-12T03:26:57.902Z,1006.15
2017-08-12T03:27:38.297Z,1006.11
2017-08-12T03:28:18.711Z,1006.11
2017-08-12T03:28:59.145Z,1006.11
2017-08-12T03:29:39.467Z,1006.07
2017-08-12T03:30:20.011Z,1006.08
2017-08-12T03:31:00.292Z,1006.06
2017-08-12T03:31:40.676Z,1006.09
2017-08-12T03:32:21.085Z,1006.07
2017-08-12T03:33:01.485Z,1006.06
2017-08-12T03:33:41.955Z,1006.06
2017-08-12T03:34:22.308Z,1006.06
2017-08-12T03:36:20.020Z,1006.08
2017-08-12T03:37:01.027Z,1006.09
2017-08-12T03:37:41.462Z,1006.02
2017-08-12T03:38:21.827Z,1006.04
2017-08-12T03:39:02.232Z,1006.03
2017-08-12T03:39:42.657Z,1005.99
2017-08-12T03:40:23.156Z,1006.1
2017-08-12T03:41:03.597Z,1006.02
2017-08-12T03:41:43.960Z,1006.02
2017-08-12T03:42:24.366Z,1006.04
2017-08-12T03:43:04.745Z,1006.07
2017-08-12T03:43:45.750Z,1006.1
2017-08-12T03:44:26.104Z,1006.14
2017-08-12T03:45:06.525Z,1006.12
2017-08-12T03:45:47.009Z,1006.15
2017-08-12T03:46:27.325Z,1006.15
2017-08-12T03:47:07.736Z,1006.15
2017-08-12T03:47:48.104Z,1006.16
2017-08-12T03:48:28.497Z,1006.16
2017-08-12T03:49:09.010Z,1006.14
2017-08-12T03:49:49.345Z,1006.14
2017-08-12T03:50:29.845Z,1006.09
2017-08-12T03:51:10.506Z,1006.13
2017-08-12T03:51:51.126Z,1006.11
2017-08-12T03:52:31.272Z,1006.09
2017-08-12T03:53:11.736Z,1006.08
2017-08-12T03:53:52.136Z,1006.1
2017-08-12T03:54:32.520Z,1006.12
2017-08-12T03:55:13.049Z,1006.1
2017-08-12T03:55:53.434Z,1006.15
2017-08-12T03:56:33.813Z,1006.15
2017-08-12T03:57:14.550Z,1006.21
2017-08-12T03:57:54.758Z,1006.22
2017-08-12T03:58:35.039Z,1006.22
2017-08-12T03:59:15.487Z,1006.28
2017-08-12T03:59:56.025Z,1006.27
2017-08-12T04:00:36.447Z,1006.3
2017-08-12T04:01:16.758Z,1006.32
2017-08-12T04:01:57.203Z,1006.29
2017-08-12T04:02:37.541Z,1006.31
2017-08-12T04:03:17.948Z,1006.27
2017-08-12T04:03:58.320Z,1006.28
2017-08-12T04:04:38.859Z,1006.29
2017-08-12T04:05:19.186Z,1006.3
2017-08-12T04:05:59.572Z,1006.32
2017-08-12T04:06:39.940Z,1006.28
2017-08-12T04:07:20.348Z,1006.29
2017-08-12T04:08:00.742Z,1006.21
2017-08-12T04:08:41.153Z,1006.26
2017-08-12T04:09:21.575Z,1006.28
2017-08-12T04:10:02.022Z,1006.26
2017-08-12T04:10:42.417Z,1006.25
2017-08-12T04:11:22.840Z,1006.25
2017-08-12T04:12:03.223Z,1006.28
2017-08-12T04:12:43.664Z,1006.27
2017-08-12T04:13:24.027Z,1006.27
2017-08-12T04:14:04.422Z,1006.3
2017-08-12T04:14:44.794Z,1006.29
2017-08-12T04:15:25.202Z,1006.34
2017-08-12T04:16:05.598Z,1006.3
2017-08-12T04:16:46.050Z,1006.34
2017-08-12T04:17:26.575Z,1006.3
2017-08-12T04:18:07.249Z,1006.31
2017-08-12T04:18:47.598Z,1006.33
2017-08-12T04:19:28.023Z,1006.35
2017-08-12T04:20:08.444Z,1006.31
2017-08-12T04:20:48.828Z,1006.34
2017-08-12T04:22:41.228Z,1006.31
2017-08-12T04:23:21.624Z,1006.29
2017-08-12T04:24:02.111Z,1006.34
2017-08-12T04:24:42.398Z,1006.34
2017-08-12T04:25:22.836Z,1006.34
2017-08-12T04:26:03.236Z,1006.31
2017-08-12T04:26:43.674Z,1006.31
2017-08-12T04:27:24.067Z,1006.3
2017-08-12T04:28:04.433Z,1006.3
2017-08-12T04:28:44.878Z,1006.29
2017-08-12T04:29:25.280Z,1006.28
2017-08-12T04:30:05.763Z,1006.29
2017-08-12T04:30:46.162Z,1006.3
2017-08-12T04:31:26.500Z,1006.28
2017-08-12T04:32:06.935Z,1006.3
2017-08-12T04:32:47.277Z,1006.31
2017-08-12T04:33:27.668Z,1006.28
2017-08-12T04:34:08.078Z,1006.32
2017-08-12T04:34:48.489Z,1006.28
2017-08-12T04:35:28.897Z,1006.28
2017-08-12T04:36:09.309Z,1006.31
2017-08-12T04:36:49.716Z,1006.28
2017-08-12T04:37:30.050Z,1006.27
2017-08-12T04:38:10.454Z,1006.27
2017-08-12T04:38:50.909Z,1006.25
2017-08-12T04:39:31.339Z,1006.24
2017-08-12T04:40:11.693Z,1006.22
2017-08-12T04:40:52.092Z,1006.21
2017-08-12T04:41:32.532Z,1006.22
2017-08-12T04:42:12.913Z,1006.17
2017-08-12T04:42:53.376Z,1006.17
2017-08-12T04:43:33.779Z,1006.19
2017-08-12T04:44:14.199Z,1006.21
2017-08-12T04:44:54.566Z,1006.2
2017-08-12T04:45:34.983Z,1006.19
2017-08-12T04:46:15.354Z,1006.22
2017-08-12T04:46:55.783Z,1006.2
2017-08-12T04:47:36.140Z,1006.21
2017-08-12T04:48:16.544Z,1006.18
2017-08-12T04:48:56.973Z,1006.24
2017-08-12T04:49:37.385Z,1006.2
2017-08-12T04:50:17.758Z,1006.21
2017-08-12T04:50:58.235Z,1006.16
2017-08-12T04:51:38.627Z,1006.16
2017-08-12T04:52:19.017Z,1006.16
2017-08-12T04:52:59.402Z,1006.19
2017-08-12T04:53:39.847Z,1006.16
2017-08-12T04:54:20.170Z,1006.14
2017-08-12T04:55:00.638Z,1006.17
2017-08-12T04:55:40.974Z,1006.13
2017-08-12T04:56:21.401Z,1006.14
2017-08-12T04:57:01.786Z,1006.18
2017-08-12T04:57:42.189Z,1006.2
2017-08-12T04:58:22.595Z,1006.17
2017-08-12T04:59:03.103Z,1006.17
2017-08-12T04:59:43.583Z,1006.19
2017-08-12T05:00:24.006Z,1006.19
2017-08-12T05:01:04.362Z,1006.19
2017-08-12T05:01:44.812Z,1006.17
2017-08-12T05:02:25.234Z,1006.22
2017-08-12T05:03:05.591Z,1006.21
2017-08-12T05:03:45.973Z,1006.21
2017-08-12T05:04:26.471Z,1006.23
2017-08-12T05:05:06.822Z,1006.2
2017-08-12T05:05:47.181Z,1006.22
2017-08-12T05:06:27.676Z,1006.18
2017-08-12T05:07:08.004Z,1006.18
2017-08-12T05:07:48.444Z,1006.19
2017-08-12T05:08:28.854Z,1006.18
2017-08-12T05:09:09.216Z,1006.18
2017-08-12T05:09:49.715Z,1006.21
2017-08-12T05:10:30.081Z,1006.21
2017-08-12T05:11:10.433Z,1006.2
2017-08-12T05:11:50.855Z,1006.23
2017-08-12T05:12:31.281Z,1006.17
2017-08-12T05:13:11.705Z,1006.2
2017-08-12T05:13:52.099Z,1006.19
2017-08-12T05:14:32.494Z,1006.17
2017-08-12T05:15:12.894Z,1006.18
2017-08-12T05:15:53.318Z,1006.2
2017-08-12T05:16:33.667Z,1006.19
2017-08-12T05:17:14.105Z,1006.21
2017-08-12T05:17:54.476Z,1006.16
2017-08-12T05:18:34.889Z,1006.15
2017-08-12T05:19:15.306Z,1006.15
2017-08-12T05:19:55.685Z,1006.14
2017-08-12T05:20:36.115Z,1006.15
2017-08-12T05:21:16.470Z,1006.11
2017-08-12T05:21:56.913Z,1006.11
2017-08-12T05:22:37.284Z,1006.12
2017-08-12T05:23:17.642Z,1006.11
2017-08-12T05:23:58.029Z,1006.1
2017-08-12T05:24:38.507Z,1006.13
2017-08-12T05:25:18.897Z,1006.13
2017-08-12T05:25:59.272Z,1006.12
2017-08-12T05:26:39.719Z,1006.13
2017-08-12T05:27:20.079Z,1006.14
2017-08-12T05:28:00.448Z,1006.15
2017-08-12T05:28:40.851Z,1006.11
2017-08-12T05:29:21.291Z,1006.13
2017-08-12T05:30:01.694Z,1006.17
2017-08-12T05:30:42.051Z,1006.17
2017-08-12T05:31:22.466Z,1006.18
2017-08-12T05:32:02.865Z,1006.16
2017-08-12T05:34:22.612Z,1006.16
2017-08-12T05:35:02.331Z,1006.15
2017-08-12T05:35:42.708Z,1006.16
2017-08-12T05:38:40.464Z,1006.18
2017-08-12T05:39:20.813Z,1006.22
2017-08-12T05:40:01.204Z,1006.19
2017-08-12T05:40:41.605Z,1006.17
2017-08-12T05:41:22.038Z,1006.15
2017-08-12T05:43:35.147Z,1006.13
2017-08-12T05:44:15.412Z,1006.11
2017-08-12T05:46:33.422Z,1006.12
2017-08-12T05:47:15.449Z,1006.1
2017-08-12T05:47:55.921Z,1006.1
2017-08-12T05:48:36.326Z,1006.1
2017-08-12T05:49:16.681Z,1006.09
2017-08-12T05:49:57.121Z,1006.07
2017-08-12T05:50:37.521Z,1006.09
2017-08-12T05:51:17.895Z,1006.08
2017-08-12T05:51:58.249Z,1006.09
2017-08-12T05:52:38.638Z,1006.05
2017-08-12T05:53:19.063Z,1006.05
2017-08-12T05:53:59.490Z,1006.07
2017-08-12T05:54:39.912Z,1006.05
2017-08-12T05:55:20.413Z,1006.05
2017-08-12T05:56:00.952Z,1006.06
2017-08-12T05:56:41.396Z,1006.07
2017-08-12T05:57:21.939Z,1006.05
2017-08-12T05:58:02.297Z,1006.06
2017-08-12T05:58:42.762Z,1006.09
2017-08-12T05:59:23.144Z,1006.07
2017-08-12T06:00:03.553Z,1006.09
2017-08-12T06:00:43.964Z,1006.1
2017-08-12T06:01:24.365Z,1006.12
2017-08-12T06:02:04.796Z,1006.13
2017-08-12T06:02:45.150Z,1006.13
2017-08-12T06:03:25.544Z,1006.12
2017-08-12T06:04:05.993Z,1006.13
2017-08-12T06:04:46.409Z,1006.12
2017-08-12T06:05:26.803Z,1006.14
2017-08-12T06:06:07.252Z,1006.15
2017-08-12T06:06:47.701Z,1006.13
2017-08-12T06:07:28.040Z,1006.16
2017-08-12T06:08:08.464Z,1006.16
2017-08-12T06:08:48.870Z,1006.15
2017-08-12T06:09:29.244Z,1006.16
2017-08-12T06:10:09.631Z,1006.16
2017-08-12T06:10:50.063Z,1006.21
2017-08-12T06:11:30.564Z,1006.21
2017-08-12T06:12:10.925Z,1006.22
2017-08-12T06:12:51.302Z,1006.2
2017-08-12T06:13:31.728Z,1006.2
2017-08-12T06:14:12.129Z,1006.27
2017-08-12T06:14:52.558Z,1006.24
2017-08-12T06:15:32.924Z,1006.21
2017-08-12T06:16:13.365Z,1006.19
2017-08-12T06:18:42.644Z,1006.17
2017-08-12T06:20:43.799Z,1006.14
2017-08-12T06:21:24.046Z,1006.12
2017-08-12T06:22:04.445Z,1006.12
2017-08-12T06:22:44.863Z,1006.14
2017-08-12T06:23:25.268Z,1006.17
2017-08-12T06:24:05.714Z,1006.14
2017-08-12T06:24:47.068Z,1006.14
2017-08-12T06:25:27.145Z,1006.14
2017-08-12T06:26:07.641Z,1006.13
